createdAt,value
2019-01-24T00:00:44.485Z,66.40
2019-01-24T00:03:15.062Z,61.43
2019-01-24T00:05:44.761Z,66.27
2019-01-24T00:08:14.599Z,60.67
2019-01-24T00:10:44.502Z,62.40
2019-01-24T00:13:14.253Z,57.90
2019-01-24T00:15:43.969Z,63.40
2019-01-24T00:18:14.205Z,64.13
2019-01-24T00:20:44.017Z,63.53
2019-01-24T00:23:13.669Z,60.00
2019-01-24T00:25:43.673Z,62.73
2019-01-24T00:28:13.310Z,64.33
2019-01-24T00:30:42.988Z,65.80
2019-01-24T00:33:12.615Z,58.10
2019-01-24T00:35:43.914Z,65.27
2019-01-24T00:38:13.756Z,63.80
2019-01-24T00:40:43.381Z,61.97
2019-01-24T00:43:13.110Z,64.40
2019-01-24T00:45:42.821Z,62.03
2019-01-24T00:48:12.557Z,63.17
2019-01-24T00:50:42.281Z,62.77
2019-01-24T00:53:11.906Z,63.87
2019-01-24T00:55:41.621Z,61.33
2019-01-24T00:58:11.359Z,59.00
2019-01-24T01:00:42.048Z,60.10
2019-01-24T01:03:11.686Z,68.27
2019-01-24T01:05:41.299Z,59.23
2019-01-24T01:08:11.137Z,62.87
2019-01-24T01:10:41.756Z,54.83
2019-01-24T01:13:12.494Z,60.00
2019-01-24T01:15:42.205Z,60.63
2019-01-24T01:18:12.086Z,61.73
2019-01-24T01:20:41.793Z,60.80
2019-01-24T01:23:11.498Z,61.70
2019-01-24T01:25:41.101Z,61.60
2019-01-24T01:28:10.909Z,64.57
2019-01-24T01:30:40.677Z,63.30
2019-01-24T01:33:10.294Z,60.73
2019-01-24T01:35:40.151Z,59.97
2019-01-24T01:38:09.998Z,60.47
2019-01-24T01:40:41.420Z,65.00
2019-01-24T01:43:11.190Z,60.93
2019-01-24T01:45:40.797Z,61.33
2019-01-24T01:48:10.434Z,62.63
2019-01-24T01:50:40.314Z,62.17
2019-01-24T01:53:10.658Z,70.77
2019-01-24T01:55:40.278Z,63.57
2019-01-24T01:58:10.517Z,66.70
2019-01-24T02:00:40.265Z,69.03
2019-01-24T02:03:10.038Z,63.60
2019-01-24T02:05:39.737Z,58.50
2019-01-24T02:08:09.350Z,53.83
2019-01-24T02:10:38.994Z,65.17
2019-01-24T02:13:08.599Z,57.20
2019-01-24T02:15:38.241Z,59.33
2019-01-24T02:18:07.982Z,68.43
2019-01-24T02:20:37.613Z,60.17
2019-01-24T02:23:07.231Z,69.70
2019-01-24T02:25:37.329Z,60.90
2019-01-24T02:28:06.934Z,66.53
2019-01-24T02:30:36.655Z,58.97
2019-01-24T02:33:06.401Z,64.17
2019-01-24T02:35:36.230Z,64.70
2019-01-24T02:38:05.911Z,66.97
2019-01-24T02:40:35.546Z,66.77
2019-01-24T02:43:05.357Z,59.50
2019-01-24T02:45:35.137Z,57.00
2019-01-24T02:48:05.219Z,53.17
2019-01-24T02:50:35.134Z,58.30
2019-01-24T02:53:05.222Z,58.70
2019-01-24T02:55:34.838Z,58.70
2019-01-24T02:58:04.916Z,61.67
2019-01-24T03:00:34.546Z,59.47
2019-01-24T03:03:04.303Z,65.33
2019-01-24T03:05:34.009Z,63.70
2019-01-24T03:08:03.613Z,63.87
2019-01-24T03:10:33.317Z,66.67
2019-01-24T03:13:02.934Z,66.17
2019-01-24T03:15:32.677Z,56.30
2019-01-24T03:18:02.366Z,63.27
2019-01-24T03:20:32.006Z,60.43
2019-01-24T03:23:01.610Z,61.63
2019-01-24T03:25:31.448Z,63.13
2019-01-24T03:28:01.270Z,60.50
2019-01-24T03:30:31.009Z,60.30
2019-01-24T03:33:01.527Z,61.87
2019-01-24T03:35:31.262Z,62.57
2019-01-24T03:38:00.871Z,60.50
2019-01-24T03:40:30.499Z,61.40
2019-01-24T03:43:00.107Z,65.53
2019-01-24T03:45:29.841Z,63.00
2019-01-24T03:47:59.445Z,68.40
2019-01-24T03:50:29.386Z,62.93
2019-01-24T03:52:58.994Z,60.57
2019-01-24T03:55:28.794Z,55.80
2019-01-24T03:57:58.705Z,58.73
2019-01-24T04:00:28.352Z,60.97
2019-01-24T04:02:57.963Z,61.57
2019-01-24T04:05:27.596Z,60.67
2019-01-24T04:07:57.332Z,55.67
2019-01-24T04:10:27.050Z,64.07
2019-01-24T04:12:56.881Z,59.60
2019-01-24T04:15:26.736Z,59.30
2019-01-24T04:17:56.531Z,63.43
2019-01-24T04:20:26.238Z,57.63
2019-01-24T04:22:56.074Z,57.27
2019-01-24T04:25:25.886Z,55.80
2019-01-24T04:27:55.524Z,60.17
2019-01-24T04:30:25.374Z,62.57
2019-01-24T04:32:55.103Z,62.43
2019-01-24T04:35:24.721Z,66.07
2019-01-24T04:37:54.445Z,62.53
2019-01-24T04:40:24.053Z,64.67
2019-01-24T04:42:53.689Z,61.23
2019-01-24T04:45:23.302Z,58.30
2019-01-24T04:47:53.045Z,63.33
2019-01-24T04:50:22.772Z,63.20
2019-01-24T04:52:52.405Z,63.83
2019-01-24T04:55:22.031Z,59.67
2019-01-24T04:57:51.657Z,59.57
2019-01-24T05:00:27.526Z,62.57
2019-01-24T05:02:57.241Z,59.57
2019-01-24T05:05:28.011Z,65.73
2019-01-24T05:07:58.126Z,67.07
2019-01-24T05:10:27.805Z,67.23
2019-01-24T05:12:57.440Z,64.50
2019-01-24T05:15:27.253Z,65.43
2019-01-24T05:17:56.882Z,60.27
2019-01-24T05:20:26.698Z,65.03
2019-01-24T05:22:56.349Z,66.97
2019-01-24T05:25:25.958Z,64.83
2019-01-24T05:27:55.630Z,58.97
2019-01-24T05:30:26.582Z,69.73
2019-01-24T05:32:56.286Z,60.60
2019-01-24T05:35:26.178Z,60.43
2019-01-24T05:37:55.798Z,62.27
2019-01-24T05:40:25.518Z,62.17
2019-01-24T05:42:55.219Z,61.17
2019-01-24T05:45:24.950Z,56.97
2019-01-24T05:47:54.565Z,60.77
2019-01-24T05:50:24.544Z,55.13
2019-01-24T05:52:54.313Z,51.30
2019-01-24T05:55:24.102Z,60.80
2019-01-24T05:57:53.738Z,61.83
2019-01-24T06:00:27.983Z,65.33
2019-01-24T06:02:57.601Z,61.07
2019-01-24T06:05:27.833Z,60.00
2019-01-24T06:07:57.514Z,59.13
2019-01-24T06:10:27.166Z,63.07
2019-01-24T06:12:56.778Z,72.80
2019-01-24T06:15:26.510Z,66.20
2019-01-24T06:17:56.146Z,59.70
2019-01-24T06:20:25.859Z,65.37
2019-01-24T06:22:56.120Z,62.87
2019-01-24T06:25:25.950Z,62.60
2019-01-24T06:27:55.655Z,60.10
2019-01-24T06:30:25.336Z,58.03
2019-01-24T06:32:54.973Z,65.37
2019-01-24T06:35:24.581Z,61.03
2019-01-24T06:37:54.296Z,67.73
2019-01-24T06:40:23.910Z,60.83
2019-01-24T06:42:53.539Z,61.27
2019-01-24T06:45:23.888Z,58.63
2019-01-24T06:47:53.533Z,57.37
2019-01-24T06:50:23.267Z,56.57
2019-01-24T06:52:52.949Z,61.03
2019-01-24T06:55:27.702Z,63.23
2019-01-24T06:57:57.415Z,61.33
2019-01-24T07:00:27.017Z,54.93
2019-01-24T07:02:56.733Z,63.83
2019-01-24T07:05:26.514Z,64.37
2019-01-24T07:07:56.170Z,63.93
2019-01-24T07:10:26.157Z,65.17
2019-01-24T07:12:55.787Z,57.43
2019-01-24T07:15:25.866Z,64.00
2019-01-24T07:17:55.477Z,57.90
2019-01-24T07:20:25.326Z,56.27
2019-01-24T07:22:54.989Z,52.03
2019-01-24T07:25:26.965Z,60.90
2019-01-24T07:27:56.633Z,56.43
2019-01-24T07:30:26.493Z,59.50
2019-01-24T07:32:56.109Z,60.37
2019-01-24T07:35:26.042Z,60.33
2019-01-24T07:37:55.649Z,58.07
2019-01-24T07:40:25.279Z,59.83
2019-01-24T07:42:54.894Z,60.53
2019-01-24T07:45:33.561Z,55.80
2019-01-24T07:48:03.277Z,56.03
2019-01-24T07:50:33.655Z,60.83
2019-01-24T07:53:03.366Z,54.17
2019-01-24T07:55:33.091Z,62.17
2019-01-24T07:58:02.714Z,61.13
2019-01-24T08:00:32.346Z,60.63
2019-01-24T08:03:01.970Z,65.37
2019-01-24T08:05:31.770Z,61.30
2019-01-24T08:08:02.887Z,62.60
2019-01-24T08:10:32.581Z,60.60
2019-01-24T08:13:02.572Z,56.33
2019-01-24T08:15:32.503Z,59.00
2019-01-24T08:18:02.122Z,59.13
2019-01-24T08:20:31.761Z,61.53
2019-01-24T08:23:01.379Z,62.57
2019-01-24T08:25:31.024Z,62.30
2019-01-24T08:28:00.632Z,58.57
2019-01-24T08:30:32.074Z,63.73
2019-01-24T08:33:01.787Z,57.40
2019-01-24T08:35:31.501Z,57.67
2019-01-24T08:38:01.251Z,59.30
2019-01-24T08:40:31.069Z,63.50
2019-01-24T08:43:00.682Z,64.70
2019-01-24T08:45:30.315Z,58.17
2019-01-24T08:48:00.029Z,60.57
2019-01-24T08:50:29.730Z,63.53
2019-01-24T08:52:59.442Z,63.70
2019-01-24T08:55:39.272Z,55.80
2019-01-24T08:58:08.886Z,65.63
2019-01-24T09:00:38.518Z,64.17
2019-01-24T09:03:08.306Z,56.57
2019-01-24T09:05:38.010Z,65.23
2019-01-24T09:08:07.760Z,63.80
2019-01-24T09:10:38.364Z,62.13
2019-01-24T09:13:08.055Z,61.60
2019-01-24T09:15:38.059Z,59.53
2019-01-24T09:18:08.311Z,65.10
2019-01-24T09:20:38.130Z,62.60
2019-01-24T09:23:07.909Z,56.70
2019-01-24T09:25:37.686Z,61.17
2019-01-24T09:28:07.422Z,64.90
2019-01-24T09:30:37.061Z,60.03
2019-01-24T09:33:06.688Z,69.13
2019-01-24T09:35:36.483Z,66.60
2019-01-24T09:38:06.234Z,60.13
2019-01-24T09:40:35.865Z,62.80
2019-01-24T09:43:05.545Z,59.37
2019-01-24T09:45:35.295Z,69.53
2019-01-24T09:48:05.938Z,70.53
2019-01-24T09:50:37.174Z,63.27
2019-01-24T09:53:08.064Z,70.53
2019-01-24T09:55:39.299Z,71.93
2019-01-24T09:58:09.087Z,63.17
2019-01-24T10:00:38.786Z,59.10
2019-01-24T10:03:08.600Z,72.60
2019-01-24T10:05:38.233Z,62.67
2019-01-24T10:08:08.007Z,62.80
2019-01-24T10:10:37.618Z,71.87
2019-01-24T10:13:07.396Z,65.43
2019-01-24T10:15:37.171Z,61.90
2019-01-24T10:18:07.043Z,67.20
2019-01-24T10:20:37.954Z,66.63
2019-01-24T10:23:07.650Z,66.03
2019-01-24T10:25:37.809Z,60.73
2019-01-24T10:28:07.582Z,62.43
2019-01-24T10:30:42.738Z,58.67
2019-01-24T10:33:08.617Z,66.40
2019-01-24T10:35:38.367Z,63.53
2019-01-24T10:38:08.066Z,62.43
2019-01-24T10:40:37.744Z,68.27
2019-01-24T10:43:08.040Z,72.15
2019-01-24T10:45:37.741Z,64.37
2019-01-24T10:48:07.517Z,69.73
2019-01-24T10:50:37.434Z,65.00
2019-01-24T10:53:07.749Z,67.27
2019-01-24T10:55:37.350Z,63.27
2019-01-24T10:58:07.419Z,65.57
2019-01-24T11:00:39.574Z,62.07
2019-01-24T11:03:11.211Z,64.30
2019-01-24T11:05:40.914Z,60.77
2019-01-24T11:08:10.965Z,63.27
2019-01-24T11:10:41.379Z,64.22
2019-01-24T11:13:11.001Z,59.30
2019-01-24T11:15:41.850Z,61.63
2019-01-24T11:18:11.551Z,54.80
2019-01-24T11:20:41.261Z,56.93
2019-01-24T11:23:11.471Z,60.78
2019-01-24T11:25:41.726Z,58.23
2019-01-24T11:28:11.418Z,58.07
2019-01-24T11:30:41.770Z,57.05
2019-01-24T11:33:11.574Z,57.60
2019-01-24T11:35:41.426Z,56.93
2019-01-24T11:38:11.242Z,53.17
2019-01-24T11:40:40.851Z,58.03
2019-01-24T11:43:11.041Z,54.07
2019-01-24T11:45:41.860Z,58.38
2019-01-24T11:48:12.139Z,51.77
2019-01-24T11:50:41.810Z,54.27
2019-01-24T11:53:11.443Z,56.00
2019-01-24T11:55:41.153Z,57.23
2019-01-24T11:58:11.373Z,62.00
2019-01-24T12:00:42.790Z,59.67
2019-01-24T12:03:13.016Z,53.50
2019-01-24T12:05:42.630Z,59.27
2019-01-24T12:08:12.363Z,62.03
2019-01-24T12:10:43.826Z,55.03
2019-01-24T12:13:14.500Z,50.40
2019-01-24T12:15:44.102Z,51.33
2019-01-24T12:18:13.739Z,52.97
2019-01-24T12:20:43.460Z,56.73
2019-01-24T12:23:13.111Z,59.03
2019-01-24T12:25:43.267Z,56.25
2019-01-24T12:28:13.690Z,55.23
2019-01-24T12:30:43.977Z,55.35
2019-01-24T12:33:14.178Z,55.05
2019-01-24T12:35:43.855Z,50.13
2019-01-24T12:38:13.563Z,52.77
2019-01-24T12:40:43.177Z,46.50
2019-01-24T12:43:12.814Z,47.13
2019-01-24T12:45:42.583Z,52.20
2019-01-24T12:48:12.230Z,45.80
2019-01-24T12:50:41.842Z,51.30
2019-01-24T12:53:14.446Z,49.53
2019-01-24T12:55:44.081Z,57.33
2019-01-24T12:58:13.717Z,55.20
2019-01-24T13:00:44.194Z,57.87
2019-01-24T13:03:13.894Z,57.40
2019-01-24T13:05:43.520Z,57.47
2019-01-24T13:08:13.270Z,59.97
2019-01-24T13:10:42.886Z,59.50
2019-01-24T13:13:14.254Z,56.43
2019-01-24T13:15:43.947Z,50.73
2019-01-24T13:18:13.598Z,54.70
2019-01-24T13:20:43.202Z,56.63
2019-01-24T13:23:12.955Z,51.90
2019-01-24T13:25:42.567Z,58.03
2019-01-24T13:28:12.201Z,49.87
2019-01-24T13:30:41.848Z,60.67
2019-01-24T13:33:12.137Z,60.88
2019-01-24T13:35:41.745Z,63.13
2019-01-24T13:38:11.974Z,64.40
2019-01-24T13:40:41.690Z,56.10
2019-01-24T13:43:11.321Z,59.37
2019-01-24T13:45:41.583Z,59.85
2019-01-24T13:48:11.790Z,57.20
2019-01-24T13:50:41.474Z,59.23
2019-01-24T13:53:11.174Z,57.70
2019-01-24T13:55:40.804Z,56.57
2019-01-24T13:58:10.511Z,52.83
2019-01-24T14:00:40.185Z,56.93
2019-01-24T14:03:19.106Z,56.60
2019-01-24T14:05:48.727Z,55.77
2019-01-24T14:08:18.966Z,58.43
2019-01-24T14:10:48.684Z,53.90
2019-01-24T14:13:18.343Z,52.20
2019-01-24T14:15:47.954Z,56.00
2019-01-24T14:18:17.766Z,55.33
2019-01-24T14:20:47.578Z,54.40
2019-01-24T14:23:17.250Z,52.03
2019-01-24T14:25:46.894Z,51.17
2019-01-24T14:28:18.141Z,53.77
2019-01-24T14:30:47.777Z,49.37
2019-01-24T14:33:17.391Z,50.30
2019-01-24T14:35:47.100Z,53.53
2019-01-24T14:38:16.710Z,57.77
2019-01-24T14:40:46.418Z,59.20
2019-01-24T14:43:16.132Z,51.83
2019-01-24T14:45:45.765Z,56.67
2019-01-24T14:48:15.446Z,56.83
2019-01-24T14:50:45.178Z,58.73
2019-01-24T14:53:14.798Z,60.20
2019-01-24T14:55:44.521Z,59.77
2019-01-24T14:58:14.153Z,63.53
2019-01-24T15:00:46.858Z,58.50
2019-01-24T15:03:16.480Z,58.57
2019-01-24T15:05:46.210Z,57.73
2019-01-24T15:08:16.818Z,55.57
2019-01-24T15:10:46.463Z,57.13
2019-01-24T15:13:16.314Z,56.00
2019-01-24T15:15:46.522Z,55.47
2019-01-24T15:18:16.129Z,55.00
2019-01-24T15:20:45.787Z,57.33
2019-01-24T15:23:15.394Z,49.63
2019-01-24T15:25:45.034Z,52.33
2019-01-24T15:28:14.660Z,56.27
2019-01-24T15:30:44.369Z,59.13
2019-01-24T15:33:14.146Z,51.27
2019-01-24T15:35:43.877Z,51.43
2019-01-24T15:38:13.515Z,47.10
2019-01-24T15:40:43.228Z,49.00
2019-01-24T15:43:12.850Z,48.13
2019-01-24T15:45:42.554Z,49.80
2019-01-24T15:48:12.311Z,48.30
2019-01-24T15:50:42.112Z,56.73
2019-01-24T15:53:11.794Z,53.17
2019-01-24T15:55:41.453Z,49.07
2019-01-24T15:58:11.066Z,50.80
2019-01-24T16:00:40.713Z,50.00
2019-01-24T16:03:10.408Z,49.47
2019-01-24T16:05:40.153Z,56.23
2019-01-24T16:08:09.768Z,54.63
2019-01-24T16:10:39.403Z,57.50
2019-01-24T16:13:09.029Z,56.23
2019-01-24T16:15:38.725Z,60.07
2019-01-24T16:18:09.074Z,64.07
2019-01-24T16:20:39.156Z,62.63
2019-01-24T16:23:08.841Z,64.10
2019-01-24T16:25:38.539Z,63.37
2019-01-24T16:28:08.247Z,72.27
2019-01-24T16:30:38.097Z,61.63
2019-01-24T16:33:09.062Z,63.87
2019-01-24T16:35:38.737Z,69.00
2019-01-24T16:38:09.698Z,73.43
2019-01-24T16:40:39.437Z,81.17
2019-01-24T16:43:09.278Z,74.80
2019-01-24T16:45:39.026Z,69.13
2019-01-24T16:48:08.770Z,67.10
2019-01-24T16:50:38.382Z,64.50
2019-01-24T16:53:08.620Z,65.03
2019-01-24T16:55:38.363Z,59.73
2019-01-24T16:58:08.073Z,80.90
2019-01-24T17:00:43.978Z,70.77
2019-01-24T17:03:13.628Z,74.33
2019-01-24T17:05:44.131Z,66.07
2019-01-24T17:08:16.650Z,65.80
2019-01-24T17:10:45.087Z,63.90
2019-01-24T17:13:14.770Z,67.70
2019-01-24T17:15:44.460Z,77.03
2019-01-24T17:18:14.095Z,68.60
2019-01-24T17:20:47.286Z,64.60
2019-01-24T17:23:16.922Z,64.37
2019-01-24T17:25:47.754Z,64.53
2019-01-24T17:28:17.397Z,66.13
2019-01-24T17:30:47.257Z,69.10
2019-01-24T17:33:16.896Z,63.07
2019-01-24T17:35:46.518Z,65.83
2019-01-24T17:38:16.164Z,62.53
2019-01-24T17:40:45.819Z,61.00
2019-01-24T17:43:15.533Z,65.77
2019-01-24T17:45:45.151Z,67.00
2019-01-24T17:48:14.786Z,62.90
2019-01-24T17:50:46.138Z,68.77
2019-01-24T17:53:15.769Z,65.87
2019-01-24T17:55:46.251Z,74.40
2019-01-24T17:58:15.898Z,82.57
2019-01-24T18:00:47.153Z,68.43
2019-01-24T18:03:17.022Z,72.40
2019-01-24T18:05:46.641Z,67.63
2019-01-24T18:08:16.338Z,65.00
2019-01-24T18:10:47.570Z,69.67
2019-01-24T18:13:17.194Z,67.17
2019-01-24T18:15:46.943Z,69.33
2019-01-24T18:18:18.289Z,72.07
2019-01-24T18:20:48.131Z,66.40
2019-01-24T18:23:17.771Z,70.33
2019-01-24T18:25:47.470Z,68.97
2019-01-24T18:28:17.910Z,69.10
2019-01-24T18:30:53.226Z,68.20
2019-01-24T18:33:22.929Z,70.10
2019-01-24T18:35:52.547Z,61.63
2019-01-24T18:38:22.373Z,67.27
2019-01-24T18:40:58.829Z,71.23
2019-01-24T18:43:28.472Z,70.13
2019-01-24T18:45:58.162Z,68.13
2019-01-24T18:48:27.988Z,68.27
2019-01-24T18:50:57.730Z,69.77
2019-01-24T18:53:32.957Z,67.93
2019-01-24T18:56:02.570Z,73.20
2019-01-24T18:58:32.218Z,69.27
2019-01-24T19:01:01.826Z,73.33
2019-01-24T19:03:31.469Z,69.50
2019-01-24T19:06:01.273Z,73.60
2019-01-24T19:08:30.958Z,66.30
2019-01-24T19:11:00.734Z,67.83
2019-01-24T19:13:30.390Z,67.50
2019-01-24T19:16:00.217Z,67.53
2019-01-24T19:18:30.059Z,66.87
2019-01-24T19:20:59.678Z,65.10
2019-01-24T19:23:29.277Z,67.87
2019-01-24T19:25:59.087Z,62.73
2019-01-24T19:28:28.769Z,63.57
2019-01-24T19:30:58.465Z,67.50
2019-01-24T19:33:28.074Z,65.80
2019-01-24T19:36:00.391Z,69.93
2019-01-24T19:38:30.145Z,57.03
2019-01-24T19:40:59.775Z,66.70
2019-01-24T19:43:29.487Z,63.40
2019-01-24T19:45:59.130Z,61.40
2019-01-24T19:48:28.819Z,69.20
2019-01-24T19:50:58.618Z,67.30
2019-01-24T19:53:28.225Z,69.20
2019-01-24T19:55:58.767Z,68.67
2019-01-24T19:58:28.388Z,65.80
2019-01-24T20:00:58.131Z,64.43
2019-01-24T20:03:27.742Z,70.53
2019-01-24T20:05:57.384Z,68.70
2019-01-24T20:08:27.061Z,67.27
2019-01-24T20:10:56.709Z,64.13
2019-01-24T20:13:26.321Z,69.03
2019-01-24T20:15:56.058Z,63.47
2019-01-24T20:18:25.683Z,61.10
2019-01-24T20:20:55.406Z,62.87
2019-01-24T20:23:25.018Z,65.97
2019-01-24T20:25:54.663Z,64.73
2019-01-24T20:28:24.345Z,65.43
2019-01-24T20:30:53.978Z,62.70
2019-01-24T20:33:23.614Z,63.07
2019-01-24T20:35:54.406Z,60.60
2019-01-24T20:38:24.091Z,58.43
2019-01-24T20:40:54.243Z,61.80
2019-01-24T20:43:24.192Z,63.07
2019-01-24T20:45:54.206Z,59.27
2019-01-24T20:48:24.049Z,68.27
2019-01-24T20:50:55.046Z,62.17
2019-01-24T20:53:24.925Z,56.07
2019-01-24T20:55:54.734Z,65.10
2019-01-24T20:58:24.362Z,64.93
2019-01-24T21:00:54.265Z,66.57
2019-01-24T21:03:23.846Z,58.37
2019-01-24T21:05:53.493Z,62.53
2019-01-24T21:08:23.145Z,64.03
2019-01-24T21:10:52.755Z,62.87
2019-01-24T21:13:22.419Z,65.57
2019-01-24T21:15:52.026Z,65.53
2019-01-24T21:18:21.669Z,57.13
2019-01-24T21:20:51.286Z,62.23
2019-01-24T21:23:21.222Z,56.80
2019-01-24T21:25:50.842Z,57.13
2019-01-24T21:28:20.487Z,56.63
2019-01-24T21:30:50.170Z,54.70
2019-01-24T21:33:19.803Z,60.27
2019-01-24T21:35:49.437Z,61.27
2019-01-24T21:38:19.309Z,62.97
2019-01-24T21:40:48.922Z,65.30
2019-01-24T21:43:19.605Z,60.30
2019-01-24T21:45:49.431Z,54.43
2019-01-24T21:48:19.899Z,61.27
2019-01-24T21:50:49.673Z,61.03
2019-01-24T21:53:19.376Z,64.40
2019-01-24T21:55:49.100Z,58.80
2019-01-24T21:58:18.735Z,57.37
2019-01-24T22:00:48.350Z,64.73
2019-01-24T22:03:17.982Z,53.93
2019-01-24T22:05:47.599Z,59.27
2019-01-24T22:08:17.333Z,53.47
2019-01-24T22:10:46.946Z,62.00
2019-01-24T22:13:16.689Z,60.23
2019-01-24T22:15:46.372Z,64.50
2019-01-24T22:18:16.115Z,61.07
2019-01-24T22:20:47.367Z,61.37
2019-01-24T22:23:17.201Z,57.37
2019-01-24T22:25:46.818Z,62.43
2019-01-24T22:28:16.455Z,67.63
2019-01-24T22:30:47.802Z,62.57
2019-01-24T22:33:17.438Z,58.33
2019-01-24T22:35:47.122Z,63.13
2019-01-24T22:38:16.759Z,61.80
2019-01-24T22:40:46.362Z,63.13
2019-01-24T22:43:16.006Z,55.17
2019-01-24T22:45:45.622Z,61.73
2019-01-24T22:48:16.270Z,57.57
2019-01-24T22:50:45.886Z,57.17
2019-01-24T22:53:15.532Z,55.47
2019-01-24T22:55:45.150Z,58.70
2019-01-24T22:58:14.781Z,58.03
2019-01-24T23:00:53.030Z,56.27
2019-01-24T23:03:25.619Z,55.30
2019-01-24T23:05:56.726Z,56.23
2019-01-24T23:08:26.361Z,50.57
2019-01-24T23:10:56.038Z,53.10
2019-01-24T23:13:25.669Z,53.50
2019-01-24T23:15:55.449Z,54.60
2019-01-24T23:18:25.605Z,50.83
2019-01-24T23:20:55.213Z,54.33
2019-01-24T23:23:25.017Z,52.87
2019-01-24T23:25:54.739Z,55.37
2019-01-24T23:28:24.429Z,60.00
2019-01-24T23:30:54.065Z,55.83
2019-01-24T23:33:23.889Z,53.40
2019-01-24T23:35:53.521Z,56.07
2019-01-24T23:38:23.210Z,59.27
2019-01-24T23:40:52.854Z,52.97
2019-01-24T23:43:22.499Z,53.77
2019-01-24T23:45:52.301Z,52.83
2019-01-24T23:48:21.875Z,57.57
2019-01-24T23:50:51.810Z,53.53
2019-01-24T23:53:21.414Z,55.37
2019-01-24T23:55:51.158Z,51.40
2019-01-24T23:58:20.774Z,50.87
